Time;durP1;ratioP1;P1;durP2;ratioP2;P2;SDS_P1;SDS_P2;PMS_P1;PMS_P2;Temp;Humidity;BMP_temperature;BMP_pressure;BME280_temperature;BME280_humidity;BME280_pressure;Samples;Min_cycle;Max_cycle;Signal;HPM_P1;HPM_P2
2022/03/22 00:01:10;;;;;;;5.55;5.15;;;-4.20;99.90;;;;;;5146981;27;21071;-57
2022/03/22 00:03:50;;;;;;;6.18;5.68;;;-4.30;99.90;;;;;;5147350;27;20530;-58
2022/03/22 00:06:30;;;;;;;6.43;5.82;;;-4.40;99.90;;;;;;5106206;27;20579;-58
2022/03/22 00:09:10;;;;;;;6.07;5.68;;;-4.30;99.90;;;;;;5105974;27;20561;-58
2022/03/22 00:11:50;;;;;;;6.05;5.65;;;-4.30;99.90;;;;;;5106773;27;20681;-58
2022/03/22 00:14:30;;;;;;;6.30;5.70;;;-4.20;99.90;;;;;;5085874;28;20652;-58
2022/03/22 00:17:10;;;;;;;7.18;6.13;;;-4.30;99.90;;;;;;5147378;27;20661;-58
2022/03/22 00:19:49;;;;;;;5.82;5.32;;;-4.40;99.90;;;;;;5085354;28;21041;-58
2022/03/22 00:22:29;;;;;;;6.20;5.70;;;-4.40;99.90;;;;;;5106254;27;20566;-58
2022/03/22 00:25:11;;;;;;;6.72;6.22;;;-4.40;99.90;;;;;;5147866;27;20877;-58
2022/03/22 00:27:51;;;;;;;6.18;5.68;;;-4.30;99.90;;;;;;5147865;27;21019;-58
2022/03/22 00:30:33;;;;;;;6.03;5.40;;;-4.30;99.90;;;;;;5085613;28;20554;-58
2022/03/22 00:33:12;;;;;;;6.40;5.85;;;-4.40;99.90;;;;;;5106401;27;20546;-57
2022/03/22 00:35:53;;;;;;;5.15;4.75;;;-4.40;99.90;;;;;;5085928;27;20543;-58
2022/03/22 00:38:33;;;;;;;5.63;5.28;;;-4.50;99.90;;;;;;5126457;27;20536;-58
2022/03/22 00:41:16;;;;;;;6.82;6.25;;;-4.60;99.90;;;;;;5106137;27;20526;-58
2022/03/22 00:43:56;;;;;;;6.55;5.95;;;-4.70;99.90;;;;;;5147771;27;20543;-58
2022/03/22 00:46:36;;;;;;;6.13;5.72;;;-4.70;99.90;;;;;;5106442;27;20958;-58
2022/03/22 00:49:15;;;;;;;6.38;5.53;;;-4.80;99.90;;;;;;5154562;27;20576;-57
2022/03/22 00:51:55;;;;;;;6.53;6.03;;;-4.90;99.90;;;;;;5106446;27;20542;-58
2022/03/22 00:54:37;;;;;;;6.30;5.80;;;-4.90;99.90;;;;;;5086544;28;20680;-58
2022/03/22 00:57:18;;;;;;;6.25;5.75;;;-4.90;99.90;;;;;;5086170;28;20539;-58
2022/03/22 01:00:05;;;;;;;5.88;5.45;;;-4.90;99.90;;;;;;5160797;27;20537;-58
2022/03/22 01:02:49;;;;;;;6.47;5.97;;;-4.90;99.90;;;;;;5147570;27;20535;-58
2022/03/22 01:05:29;;;;;;;5.80;5.40;;;-4.90;99.90;;;;;;5085935;28;20667;-58
2022/03/22 01:08:11;;;;;;;7.07;6.50;;;-4.90;99.90;;;;;;5086004;27;20683;-58
2022/03/22 01:10:53;;;;;;;6.72;5.90;;;-4.90;99.90;;;;;;5105975;27;20662;-57
2022/03/22 01:13:31;;;;;;;6.70;6.05;;;-5.00;99.90;;;;;;5086132;27;20766;-58
2022/03/22 01:16:11;;;;;;;6.60;6.05;;;-5.00;99.90;;;;;;5147144;27;20996;-58
2022/03/22 01:18:51;;;;;;;5.97;5.35;;;-5.00;99.90;;;;;;5151611;27;20589;-58
2022/03/22 01:21:31;;;;;;;6.57;5.78;;;-5.00;99.90;;;;;;5085465;28;20576;-59
2022/03/22 01:24:11;;;;;;;6.68;6.18;;;-5.10;99.90;;;;;;5086081;28;20660;-58
2022/03/22 01:26:51;;;;;;;6.47;5.88;;;-5.10;99.90;;;;;;5086036;27;20707;-58
2022/03/22 01:29:30;;;;;;;7.07;6.57;;;-5.10;99.90;;;;;;5085598;27;21224;-58
2022/03/22 01:32:10;;;;;;;7.22;6.38;;;-5.10;99.90;;;;;;5126821;27;21069;-58
2022/03/22 01:34:50;;;;;;;6.45;5.85;;;-5.20;99.90;;;;;;5126625;27;20861;-57
2022/03/22 01:37:30;;;;;;;6.47;5.97;;;-5.30;99.90;;;;;;5147635;27;20553;-57
2022/03/22 01:40:12;;;;;;;6.07;5.53;;;-5.30;99.90;;;;;;5162964;27;20957;-58
2022/03/22 01:42:54;;;;;;;6.88;6.28;;;-5.30;99.90;;;;;;5147856;27;20661;-59
2022/03/22 01:45:33;;;;;;;5.78;5.38;;;-5.30;99.90;;;;;;5127487;27;21283;-58
2022/03/22 01:48:14;;;;;;;6.28;5.78;;;-5.30;99.90;;;;;;5148241;27;20645;-58
2022/03/22 01:50:55;;;;;;;6.03;5.63;;;-5.30;99.90;;;;;;5082911;27;20561;-58
2022/03/22 01:53:37;;;;;;;6.40;5.90;;;-5.40;99.90;;;;;;5092282;28;20667;-58
2022/03/22 01:56:17;;;;;;;6.85;6.15;;;-5.50;99.90;;;;;;5146946;27;20669;-58
2022/03/22 01:58:56;;;;;;;6.18;5.78;;;-5.50;99.90;;;;;;5147643;27;20912;-59
2022/03/22 02:07:36;;;;;;;6.38;5.88;;;-5.60;99.90;;;;;;5106079;27;20529;-58
2022/03/22 02:10:16;;;;;;;6.28;5.78;;;-5.60;99.90;;;;;;5067004;27;20561;-58
2022/03/22 02:12:56;;;;;;;7.97;7.22;;;-5.60;99.90;;;;;;5118775;27;20544;-56
2022/03/22 02:15:36;;;;;;;7.90;7.05;;;-5.60;99.90;;;;;;5127193;27;20562;-58
2022/03/22 02:18:16;;;;;;;6.82;6.22;;;-5.70;99.90;;;;;;5126931;27;20679;-59
2022/03/22 02:20:57;;;;;;;7.55;6.85;;;-5.80;99.90;;;;;;5106265;27;20666;-59
2022/03/22 02:23:50;;;;;;;8.15;7.45;;;-5.80;99.90;;;;;;5147707;27;20657;-58
2022/03/22 02:26:29;;;;;;;6.47;5.97;;;-5.90;99.90;;;;;;5086302;27;20535;-58
2022/03/22 02:29:09;;;;;;;6.95;6.28;;;-5.90;99.90;;;;;;5147583;27;21178;-58
2022/03/22 02:31:49;;;;;;;7.50;6.57;;;-5.90;99.90;;;;;;5126806;27;21149;-58
2022/03/22 02:34:29;;;;;;;7.32;6.63;;;-5.90;99.90;;;;;;5147427;27;20531;-58
2022/03/22 02:37:08;;;;;;;7.55;6.88;;;-5.90;99.90;;;;;;5147144;27;20681;-58
2022/03/22 02:39:48;;;;;;;8.30;6.72;;;-5.90;99.90;;;;;;5085823;28;20707;-58
2022/03/22 02:42:29;;;;;;;6.93;6.32;;;-5.90;99.90;;;;;;5086135;28;21189;-58
2022/03/22 02:45:09;;;;;;;7.93;6.18;;;-6.00;99.90;;;;;;5136149;27;20570;-58
2022/03/22 02:47:49;;;;;;;7.00;6.35;;;-6.00;99.90;;;;;;5105622;27;20952;-58
2022/03/22 02:50:29;;;;;;;6.80;5.75;;;-6.00;99.90;;;;;;5086087;28;21241;-57
2022/03/22 02:53:09;;;;;;;7.70;7.07;;;-5.90;99.90;;;;;;5107186;27;21106;-58
2022/03/22 02:55:49;;;;;;;7.65;6.43;;;-6.00;99.90;;;;;;5105092;27;20663;-58
2022/03/22 02:58:29;;;;;;;7.20;6.60;;;-6.00;99.90;;;;;;5084116;27;20899;-58
2022/03/22 03:01:09;;;;;;;7.05;6.45;;;-6.00;99.90;;;;;;5080446;28;20683;-58
2022/03/22 03:03:49;;;;;;;7.22;6.57;;;-6.00;99.90;;;;;;5094574;27;20538;-58
2022/03/22 03:06:29;;;;;;;7.57;6.90;;;-6.00;99.90;;;;;;5153755;27;20684;-58
2022/03/22 03:09:08;;;;;;;6.85;6.20;;;-6.00;99.90;;;;;;5106406;27;20549;-58
2022/03/22 03:11:48;;;;;;;6.55;5.95;;;-6.00;99.90;;;;;;5127593;27;20543;-58
2022/03/22 03:14:40;;;;;;;7.55;6.68;;;-6.00;99.90;;;;;;5086277;27;20547;-57
2022/03/22 03:17:20;;;;;;;8.88;7.38;;;-6.00;99.90;;;;;;5086494;27;20535;-58
2022/03/22 03:20:00;;;;;;;8.07;7.43;;;-6.00;99.90;;;;;;5086315;27;21100;-58
2022/03/22 03:22:40;;;;;;;9.50;8.60;;;-6.00;99.90;;;;;;5106943;27;20666;-59
2022/03/22 03:25:20;;;;;;;7.75;7.05;;;-6.10;99.90;;;;;;5127102;27;20671;-58
2022/03/22 03:28:00;;;;;;;8.45;7.32;;;-6.20;99.90;;;;;;5147962;27;20700;-58
2022/03/22 03:30:39;;;;;;;7.90;6.57;;;-6.20;99.90;;;;;;5166851;27;20579;-58
2022/03/22 03:33:19;;;;;;;8.05;7.00;;;-6.30;99.90;;;;;;5106219;27;20545;-58
2022/03/22 03:35:59;;;;;;;7.45;6.90;;;-6.30;99.90;;;;;;5127260;27;20991;-58
2022/03/22 03:38:42;;;;;;;7.80;7.05;;;-6.30;99.90;;;;;;5106385;27;20677;-59
2022/03/22 03:47:19;;;;;;;7.70;6.70;;;-6.50;99.90;;;;;;5106511;27;20657;-59
2022/03/22 03:49:59;;;;;;;8.27;7.57;;;-6.30;99.90;;;;;;5126213;27;20663;-58
2022/03/22 03:52:40;;;;;;;7.38;6.28;;;-6.10;99.90;;;;;;5126913;27;20571;-57
2022/03/22 03:55:21;;;;;;;6.95;6.35;;;-6.20;99.90;;;;;;5147979;27;21008;-58
2022/03/22 03:58:01;;;;;;;6.85;6.32;;;-6.20;99.90;;;;;;5126997;27;20536;-56
2022/03/22 04:00:41;;;;;;;7.63;6.90;;;-6.20;99.90;;;;;;5106449;27;20689;-57
2022/03/22 04:03:20;;;;;;;7.50;6.80;;;-6.20;99.90;;;;;;5106735;27;20530;-58
2022/03/22 04:06:00;;;;;;;8.25;6.32;;;-6.20;99.90;;;;;;5086071;28;20660;-57
2022/03/22 04:08:40;;;;;;;6.32;5.82;;;-6.30;99.90;;;;;;5106068;27;20953;-58
2022/03/22 04:11:20;;;;;;;9.60;7.30;;;-6.10;99.90;;;;;;5085542;27;20566;-58
2022/03/22 04:14:00;;;;;;;10.75;8.63;;;-6.10;99.90;;;;;;5106622;27;20534;-58
2022/03/22 04:16:40;;;;;;;15.00;12.65;;;-6.10;99.90;;;;;;5106235;27;20670;-58
2022/03/22 04:19:19;;;;;;;12.75;11.45;;;-6.10;99.90;;;;;;5105667;27;20674;-57
2022/03/22 04:22:00;;;;;;;17.67;15.70;;;-6.20;99.90;;;;;;5086555;28;20982;-58
2022/03/22 04:24:39;;;;;;;17.90;16.02;;;-6.30;99.90;;;;;;5147538;27;20526;-58
2022/03/22 04:33:14;;;;;;;15.52;14.02;;;-6.30;99.90;;;;;;5085788;28;20676;-58
2022/03/22 04:35:54;;;;;;;15.70;14.13;;;-6.30;99.90;;;;;;5126787;27;20528;-57
2022/03/22 04:38:34;;;;;;;17.15;13.40;;;-6.30;99.90;;;;;;5085329;28;21133;-58
2022/03/22 04:41:13;;;;;;;18.27;15.98;;;-6.40;99.90;;;;;;5126321;27;20962;-56
2022/03/22 04:43:53;;;;;;;15.57;14.07;;;-6.40;99.90;;;;;;5147543;27;20657;-58
2022/03/22 04:46:33;;;;;;;14.30;13.10;;;-6.40;99.90;;;;;;5106416;27;20681;-59
2022/03/22 04:49:13;;;;;;;14.20;12.88;;;-6.50;99.90;;;;;;5106277;27;21195;-58
2022/03/22 04:57:55;;;;;;;7.47;6.88;;;-6.60;99.90;;;;;;5105661;27;20957;-59
2022/03/22 05:00:35;;;;;;;7.35;6.43;;;-6.70;99.90;;;;;;5105858;27;21222;-58
2022/03/22 05:03:27;;;;;;;7.80;7.00;;;-6.70;99.90;;;;;;5085868;28;20569;-58
2022/03/22 05:09:05;;;;;;;8.18;7.28;;;-6.70;99.90;;;;;;5149325;27;20606;-58
2022/03/22 05:11:44;;;;;;;8.40;7.63;;;-6.70;99.90;;;;;;5145178;27;20539;-59
2022/03/22 05:14:24;;;;;;;9.15;7.90;;;-6.80;99.90;;;;;;5084819;28;20547;-57
2022/03/22 05:17:04;;;;;;;8.82;7.93;;;-6.80;99.90;;;;;;5100451;27;20681;-58
2022/03/22 05:19:44;;;;;;;7.63;6.97;;;-6.80;99.90;;;;;;5126500;27;20855;-58
2022/03/22 05:22:23;;;;;;;8.70;7.78;;;-6.80;99.90;;;;;;5091868;28;20831;-57
2022/03/22 05:25:03;;;;;;;8.90;8.10;;;-6.80;99.90;;;;;;5123027;27;20570;-58
2022/03/22 05:27:43;;;;;;;9.65;8.73;;;-6.80;99.90;;;;;;5106481;27;20996;-58
2022/03/22 05:30:23;;;;;;;8.70;7.90;;;-6.70;99.90;;;;;;5146947;27;20685;-57
2022/03/22 05:33:03;;;;;;;8.95;8.00;;;-6.70;99.90;;;;;;5086002;27;20680;-58
2022/03/22 05:35:42;;;;;;;12.05;7.50;;;-6.50;99.90;;;;;;5106717;27;20669;-58
2022/03/22 05:38:25;;;;;;;9.02;8.23;;;-6.30;99.90;;;;;;5147099;27;20662;-58
2022/03/22 05:41:06;;;;;;;8.27;7.50;;;-6.30;99.90;;;;;;5126618;27;20552;-58
2022/03/22 05:43:46;;;;;;;8.85;8.10;;;-6.20;99.90;;;;;;5086083;27;20539;-57
2022/03/22 05:46:25;;;;;;;8.52;7.82;;;-6.10;99.90;;;;;;5086026;28;21205;-58
2022/03/22 05:49:05;;;;;;;10.25;8.02;;;-5.90;99.90;;;;;;5152761;27;20537;-58
2022/03/22 05:51:45;;;;;;;11.18;8.55;;;-5.80;99.90;;;;;;5106187;27;20673;-58
2022/03/22 05:54:24;;;;;;;8.43;7.72;;;-5.80;99.90;;;;;;5105923;27;20705;-58
2022/03/22 05:57:05;;;;;;;9.48;8.50;;;-5.70;99.90;;;;;;5127310;27;20565;-58
2022/03/22 05:59:44;;;;;;;8.80;8.00;;;-5.50;99.90;;;;;;5125995;27;20548;-58
2022/03/22 06:02:24;;;;;;;8.90;8.00;;;-5.40;99.90;;;;;;5121610;27;20675;-57
2022/03/22 06:05:04;;;;;;;8.95;8.25;;;-5.30;99.90;;;;;;5146189;27;20547;-57
2022/03/22 06:07:45;;;;;;;9.55;8.60;;;-5.10;99.90;;;;;;5101611;27;20669;-58
2022/03/22 06:10:25;;;;;;;12.35;8.38;;;-5.00;99.90;;;;;;5067830;28;20690;-57
2022/03/22 06:13:05;;;;;;;11.40;10.40;;;-4.80;99.90;;;;;;5085771;28;20667;-58
2022/03/22 06:15:45;;;;;;;11.40;10.27;;;-4.60;99.90;;;;;;5122834;27;20667;-58
2022/03/22 06:18:24;;;;;;;12.07;10.88;;;-4.40;99.90;;;;;;5105716;27;20950;-60
2022/03/22 06:21:04;;;;;;;13.30;10.30;;;-4.30;99.90;;;;;;5146659;27;21193;-58
2022/03/22 06:23:47;;;;;;;9.35;8.43;;;-4.10;99.90;;;;;;5085859;28;20663;-58
2022/03/22 06:26:25;;;;;;;11.93;9.10;;;-4.00;99.90;;;;;;5085763;28;20676;-58
2022/03/22 06:29:05;;;;;;;9.00;8.27;;;-3.70;99.90;;;;;;5152873;27;21001;-58
2022/03/22 06:31:45;;;;;;;9.48;8.68;;;-3.60;99.90;;;;;;5085951;27;21079;-58
2022/03/22 06:34:25;;;;;;;9.20;8.23;;;-3.40;99.90;;;;;;5083476;28;20563;-59
2022/03/22 06:37:05;;;;;;;8.80;8.10;;;-3.20;99.90;;;;;;5145683;27;20534;-58
2022/03/22 06:39:45;;;;;;;8.25;7.55;;;-3.00;99.90;;;;;;5099070;27;20975;-58
2022/03/22 06:42:24;;;;;;;7.75;7.15;;;-2.80;99.90;;;;;;5104912;27;20546;-58
2022/03/22 06:45:06;;;;;;;9.65;8.52;;;-2.50;99.90;;;;;;5125431;27;20540;-58
2022/03/22 06:47:46;;;;;;;7.43;6.82;;;-2.40;99.90;;;;;;5085543;28;20664;-58
2022/03/22 06:50:26;;;;;;;7.45;6.85;;;-2.20;99.90;;;;;;5083730;27;20586;-58
2022/03/22 06:53:06;;;;;;;9.27;6.45;;;-2.00;99.90;;;;;;5078037;28;20586;-58
2022/03/22 06:55:46;;;;;;;8.00;6.30;;;-1.80;99.90;;;;;;5105879;27;20666;-58
2022/03/22 06:58:29;;;;;;;7.50;6.80;;;-1.60;99.90;;;;;;5123815;27;21048;-58
2022/03/22 07:01:08;;;;;;;8.25;7.32;;;-1.30;99.90;;;;;;5074760;28;20547;-57
2022/03/22 07:03:48;;;;;;;8.30;6.93;;;-1.10;99.90;;;;;;5106176;27;20574;-58
2022/03/22 07:06:28;;;;;;;7.88;7.25;;;-0.90;99.90;;;;;;5086014;27;20543;-58
2022/03/22 07:09:07;;;;;;;7.78;7.07;;;-0.70;99.90;;;;;;5148944;27;21092;-57
2022/03/22 07:11:55;;;;;;;7.35;6.65;;;-0.50;99.90;;;;;;5104726;27;20564;-58
2022/03/22 07:14:34;;;;;;;7.35;6.75;;;-0.30;99.90;;;;;;5105645;27;20546;-58
2022/03/22 07:17:14;;;;;;;7.93;7.05;;;-0.20;99.90;;;;;;5106429;27;20842;-58
2022/03/22 07:19:53;;;;;;;7.07;6.38;;;0.10;99.90;;;;;;5081605;28;20710;-58
2022/03/22 07:22:33;;;;;;;8.68;7.20;;;0.30;99.90;;;;;;5106237;27;20673;-58
2022/03/22 07:25:13;;;;;;;7.68;6.97;;;0.50;99.90;;;;;;5146817;27;20535;-58
2022/03/22 07:27:54;;;;;;;8.13;7.40;;;0.70;99.90;;;;;;5082011;28;21235;-57
2022/03/22 07:30:35;;;;;;;7.93;7.28;;;0.90;99.90;;;;;;5097259;27;20898;-58
2022/03/22 07:33:14;;;;;;;7.63;6.88;;;1.10;99.90;;;;;;5105518;27;20693;-58
2022/03/22 07:35:54;;;;;;;8.13;6.30;;;1.40;99.90;;;;;;5085090;28;20572;-58
2022/03/22 07:38:34;;;;;;;10.20;9.25;;;1.60;99.90;;;;;;5125423;27;20679;-59
2022/03/22 07:41:14;;;;;;;6.25;5.65;;;1.90;99.90;;;;;;5083076;28;20544;-59
2022/03/22 07:43:54;;;;;;;8.13;7.43;;;2.20;99.90;;;;;;5139853;27;20578;-60
2022/03/22 07:46:34;;;;;;;6.32;5.75;;;2.60;99.90;;;;;;5105678;27;20562;-59
2022/03/22 07:55:10;;;;;;;7.47;5.30;;;3.50;94.20;;;;;;5084509;27;20539;-59
2022/03/22 07:57:49;;;;;;;5.28;4.88;;;3.70;94.90;;;;;;5123313;27;21089;-59
2022/03/22 08:00:30;;;;;;;5.38;4.95;;;3.80;91.80;;;;;;5105484;27;20553;-59
2022/03/22 08:03:13;;;;;;;7.38;5.13;;;3.90;85.10;;;;;;5106357;27;21158;-59
2022/03/22 08:05:52;;;;;;;5.32;4.72;;;4.00;88.00;;;;;;5126477;27;20600;-59
2022/03/22 08:08:32;;;;;;;7.43;5.32;;;4.10;87.60;;;;;;5085772;27;20531;-59
2022/03/22 08:11:12;;;;;;;5.60;5.07;;;4.20;82.80;;;;;;5146502;27;20680;-58
2022/03/22 08:13:51;;;;;;;6.28;5.68;;;4.30;77.70;;;;;;5105893;27;21194;-59
2022/03/22 08:16:31;;;;;;;5.40;4.88;;;4.40;83.30;;;;;;5126495;27;20540;-59
2022/03/22 08:19:17;;;;;;;6.47;5.47;;;4.60;76.90;;;;;;5110993;27;20581;-60
2022/03/22 08:21:57;;;;;;;6.72;4.82;;;4.70;68.90;;;;;;5106196;27;20661;-60
2022/03/22 08:24:37;;;;;;;5.15;4.75;;;4.80;70.70;;;;;;5106227;27;20665;-58
2022/03/22 08:27:17;;;;;;;6.30;5.80;;;4.90;65.80;;;;;;5106237;27;20665;-59
2022/03/22 08:29:57;;;;;;;6.70;6.10;;;5.00;68.40;;;;;;5086050;27;20576;-60
2022/03/22 08:32:37;;;;;;;5.25;4.57;;;5.10;63.20;;;;;;5127026;27;20548;-58
2022/03/22 08:35:16;;;;;;;5.85;5.28;;;5.20;63.50;;;;;;5086204;28;20551;-60
2022/03/22 08:37:56;;;;;;;5.97;5.43;;;5.30;62.10;;;;;;5085793;27;20556;-59
2022/03/22 08:40:36;;;;;;;5.38;4.88;;;5.40;60.00;;;;;;5105987;27;20685;-59
2022/03/22 08:43:16;;;;;;;6.43;5.60;;;5.50;59.70;;;;;;5106522;27;21059;-59
2022/03/22 08:45:56;;;;;;;4.93;4.53;;;5.60;59.30;;;;;;5105821;27;20545;-59
2022/03/22 08:48:37;;;;;;;5.50;4.80;;;5.70;58.20;;;;;;5103609;27;20549;-59
2022/03/22 08:51:19;;;;;;;7.03;4.78;;;5.70;57.60;;;;;;5126438;27;20532;-60
2022/03/22 08:53:58;;;;;;;5.72;4.97;;;5.80;57.20;;;;;;5126678;27;20548;-59
2022/03/22 08:56:38;;;;;;;6.53;5.50;;;5.90;56.40;;;;;;5105713;27;20681;-58
2022/03/22 08:59:18;;;;;;;5.72;5.20;;;6.00;55.00;;;;;;5126778;27;20552;-57
2022/03/22 09:01:58;;;;;;;5.93;5.43;;;6.00;55.40;;;;;;5085801;28;21220;-59
2022/03/22 09:07:35;;;;;;;5.72;5.22;;;6.30;53.50;;;;;;5105684;27;20542;-58
2022/03/22 09:10:18;;;;;;;9.35;5.63;;;6.40;54.00;;;;;;5126005;27;20679;-59
2022/03/22 09:12:58;;;;;;;5.28;4.72;;;6.50;51.80;;;;;;5106001;27;20695;-58
2022/03/22 09:15:39;;;;;;;5.20;4.70;;;6.60;52.90;;;;;;5106215;27;20701;-58
2022/03/22 09:18:21;;;;;;;6.60;5.45;;;6.70;53.30;;;;;;5084955;28;20601;-58
2022/03/22 09:21:01;;;;;;;5.20;4.70;;;6.80;50.70;;;;;;5084920;27;20571;-59
2022/03/22 09:23:41;;;;;;;5.18;4.68;;;6.90;52.30;;;;;;5085489;27;21099;-58
2022/03/22 09:26:21;;;;;;;5.45;4.95;;;7.00;54.20;;;;;;5126352;27;20548;-59
2022/03/22 09:29:01;;;;;;;6.03;5.43;;;7.10;51.90;;;;;;5127267;27;20549;-58
2022/03/22 09:31:40;;;;;;;5.22;4.72;;;7.10;50.10;;;;;;5085643;28;20663;-58
2022/03/22 09:34:20;;;;;;;5.78;5.22;;;7.20;49.90;;;;;;5106406;27;20549;-59
2022/03/22 09:37:00;;;;;;;6.00;5.20;;;7.30;49.40;;;;;;5126868;27;21128;-58
2022/03/22 09:39:39;;;;;;;5.78;5.07;;;7.40;48.20;;;;;;5085375;27;20563;-58
2022/03/22 09:42:19;;;;;;;7.15;5.25;;;7.40;48.60;;;;;;5085398;27;20457;-58
2022/03/22 09:45:01;;;;;;;5.50;4.72;;;7.50;50.20;;;;;;5085948;28;20664;-58
2022/03/22 09:47:43;;;;;;;5.57;5.18;;;7.60;50.10;;;;;;5105622;27;20669;-58
2022/03/22 09:51:44;;;;;;;5.88;5.35;;;7.70;48.60;;;;;;5126147;27;20603;-58
2022/03/22 09:53:23;;;;;;;5.63;5.22;;;7.70;50.40;;;;;;5126559;27;20543;-58
2022/03/22 09:56:02;;;;;;;5.70;5.10;;;7.90;48.80;;;;;;5126539;27;21093;-58
2022/03/22 09:58:42;;;;;;;6.90;5.03;;;8.10;48.40;;;;;;5085601;27;20555;-58
2022/03/22 10:01:22;;;;;;;5.47;4.97;;;8.20;47.60;;;;;;5085331;28;20663;-58
2022/03/22 10:04:03;;;;;;;5.88;5.18;;;8.30;47.60;;;;;;5106296;27;20572;-58
2022/03/22 10:06:54;;;;;;;5.38;4.40;;;8.30;46.00;;;;;;5084726;27;20590;-58
2022/03/22 10:09:36;;;;;;;5.82;5.43;;;8.30;46.30;;;;;;5094550;27;20969;-59
2022/03/22 10:12:26;;;;;;;5.28;4.57;;;8.30;46.30;;;;;;5105550;27;20677;-58
2022/03/22 10:15:13;;;;;;;7.03;4.63;;;8.50;45.00;;;;;;5085777;28;20668;-59
2022/03/22 10:18:02;;;;;;;6.93;5.72;;;8.60;44.00;;;;;;5126446;27;20700;-59
2022/03/22 10:20:42;;;;;;;5.90;5.30;;;8.80;45.10;;;;;;5166924;27;20905;-58
2022/03/22 10:23:24;;;;;;;5.20;4.82;;;8.80;43.90;;;;;;5147171;27;20535;-59
2022/03/22 10:26:06;;;;;;;5.85;5.35;;;8.90;43.50;;;;;;5146758;27;20538;-59
2022/03/22 10:28:52;;;;;;;4.38;3.95;;;9.00;43.00;;;;;;5150175;27;21038;-59
2022/03/22 10:31:37;;;;;;;8.52;3.97;;;9.00;41.00;;;;;;5085652;28;20688;-60
2022/03/22 10:34:18;;;;;;;5.65;4.00;;;9.10;41.60;;;;;;5105531;27;20545;-60
2022/03/22 10:36:57;;;;;;;6.47;4.10;;;9.20;40.40;;;;;;5085630;28;20616;-59
2022/03/22 10:39:41;;;;;;;4.63;4.22;;;9.30;39.10;;;;;;5126128;27;20993;-59
2022/03/22 10:42:23;;;;;;;3.67;3.38;;;9.40;38.40;;;;;;5076191;28;21022;-58
2022/03/22 10:45:03;;;;;;;4.20;3.90;;;9.40;38.50;;;;;;5086165;27;20535;-58
2022/03/22 10:47:43;;;;;;;3.55;3.33;;;9.50;39.70;;;;;;5105963;27;20549;-59
2022/03/22 10:50:24;;;;;;;4.45;4.05;;;9.60;36.10;;;;;;5101002;27;20571;-59
2022/03/22 10:53:03;;;;;;;5.00;3.95;;;9.70;35.70;;;;;;5125863;27;20574;-60
2022/03/22 10:55:43;;;;;;;5.13;4.72;;;9.80;36.50;;;;;;5105231;27;20538;-59
2022/03/22 10:58:25;;;;;;;5.10;4.68;;;9.90;38.00;;;;;;5119057;27;21074;-60
2022/03/22 11:01:06;;;;;;;7.30;4.55;;;10.00;38.50;;;;;;5147836;27;20543;-58
2022/03/22 11:03:45;;;;;;;5.57;4.10;;;10.10;36.60;;;;;;5105853;27;21007;-59
2022/03/22 11:06:30;;;;;;;5.35;4.95;;;10.20;36.00;;;;;;5124581;27;20532;-59
2022/03/22 11:09:10;;;;;;;3.92;3.65;;;10.30;35.60;;;;;;5153587;27;20663;-58
2022/03/22 11:11:50;;;;;;;4.60;4.25;;;10.50;33.20;;;;;;5104393;27;20538;-59
2022/03/22 11:14:30;;;;;;;4.55;3.85;;;10.50;33.90;;;;;;5126684;27;20695;-59
2022/03/22 11:17:12;;;;;;;4.35;4.03;;;10.50;35.20;;;;;;5085671;28;20683;-59
2022/03/22 11:19:53;;;;;;;4.75;4.28;;;10.70;36.30;;;;;;5077466;28;21226;-59
2022/03/22 11:22:32;;;;;;;4.28;3.88;;;10.90;33.50;;;;;;5100047;27;20562;-59
2022/03/22 11:25:14;;;;;;;3.40;3.10;;;10.80;33.90;;;;;;5085422;27;20551;-59
2022/03/22 11:28:04;;;;;;;4.55;3.67;;;10.90;31.50;;;;;;5105504;27;21214;-59
2022/03/22 11:30:44;;;;;;;4.38;3.97;;;10.80;31.10;;;;;;5105756;27;21237;-59
2022/03/22 11:36:25;;;;;;;3.75;3.45;;;11.10;32.30;;;;;;5075051;28;20723;-60
2022/03/22 11:39:05;;;;;;;4.95;4.50;;;11.10;34.10;;;;;;5146054;27;20547;-59
2022/03/22 11:44:44;;;;;;;4.03;3.70;;;11.20;33.90;;;;;;5068169;27;20578;-60
2022/03/22 11:47:24;;;;;;;4.32;3.92;;;11.30;31.80;;;;;;5079674;27;21003;-60
2022/03/22 11:50:06;;;;;;;4.80;4.32;;;11.30;31.40;;;;;;5081506;28;20663;-59
2022/03/22 11:52:48;;;;;;;3.58;3.33;;;11.30;33.60;;;;;;5078834;28;20678;-59
2022/03/22 11:55:28;;;;;;;3.67;3.38;;;11.30;33.80;;;;;;5082286;28;21037;-59
2022/03/22 11:58:09;;;;;;;3.90;3.40;;;11.40;31.40;;;;;;5084391;27;20613;-59
2022/03/22 12:00:55;;;;;;;5.57;5.13;;;11.40;31.30;;;;;;5104679;27;20542;-59
2022/03/22 12:03:36;;;;;;;3.42;3.22;;;11.60;31.60;;;;;;5072746;27;20553;-60
2022/03/22 12:06:16;;;;;;;4.38;3.95;;;11.60;31.70;;;;;;5149458;27;20426;-60
2022/03/22 12:08:56;;;;;;;4.32;3.83;;;11.70;31.70;;;;;;5104428;27;20537;-58
2022/03/22 12:11:37;;;;;;;5.32;4.30;;;11.80;30.70;;;;;;5086273;28;20683;-59
2022/03/22 12:14:27;;;;;;;4.65;4.25;;;11.90;31.20;;;;;;5126715;27;21068;-60
2022/03/22 12:17:07;;;;;;;4.88;4.43;;;11.80;33.50;;;;;;5107069;27;20666;-61
2022/03/22 12:19:47;;;;;;;5.10;3.97;;;11.90;31.80;;;;;;5106410;27;20673;-61
2022/03/22 12:22:27;;;;;;;3.95;3.65;;;11.90;31.60;;;;;;5090553;27;20707;-61
2022/03/22 12:25:07;;;;;;;4.18;3.05;;;12.00;29.70;;;;;;5083844;27;20572;-61
2022/03/22 12:27:53;;;;;;;3.78;3.40;;;12.20;29.70;;;;;;5147847;27;20665;-61
2022/03/22 12:30:34;;;;;;;5.90;3.45;;;12.40;29.80;;;;;;5105837;27;20538;-60
2022/03/22 12:33:18;;;;;;;3.25;2.95;;;12.40;28.50;;;;;;5078083;28;20674;-61
2022/03/22 12:35:57;;;;;;;9.85;3.85;;;12.40;27.40;;;;;;5085039;28;20601;-60
2022/03/22 12:38:37;;;;;;;3.40;3.20;;;12.40;29.20;;;;;;5085888;27;20554;-61
2022/03/22 12:41:17;;;;;;;3.40;3.10;;;12.50;27.70;;;;;;5140440;27;20670;-60
2022/03/22 12:43:56;;;;;;;3.50;3.20;;;12.50;26.20;;;;;;5072785;27;20601;-61
2022/03/22 12:46:36;;;;;;;3.75;3.45;;;12.50;27.30;;;;;;5105458;27;21074;-61
2022/03/22 12:49:16;;;;;;;3.40;3.10;;;12.50;28.70;;;;;;5105425;27;21135;-61
2022/03/22 12:51:56;;;;;;;3.50;3.20;;;12.60;28.00;;;;;;5105841;27;20558;-60
2022/03/22 12:54:37;;;;;;;3.38;3.00;;;12.60;28.70;;;;;;5087009;27;20561;-61
2022/03/22 12:57:18;;;;;;;3.50;3.20;;;12.60;27.10;;;;;;5105652;27;21062;-61
2022/03/22 12:59:57;;;;;;;3.80;3.50;;;12.50;28.90;;;;;;5084855;27;20552;-61
2022/03/22 13:02:38;;;;;;;3.63;3.33;;;12.60;27.20;;;;;;5083250;28;20544;-61
2022/03/22 13:05:24;;;;;;;4.07;3.67;;;12.70;27.00;;;;;;5085284;27;20539;-61
2022/03/22 13:08:06;;;;;;;4.00;3.70;;;12.60;28.20;;;;;;5106178;27;20588;-61
2022/03/22 13:16:50;;;;;;;4.47;3.15;;;12.90;28.70;;;;;;5085742;27;20539;-60
2022/03/22 13:19:31;;;;;;;3.45;3.25;;;13.00;28.40;;;;;;5105974;27;20549;-61
2022/03/22 13:22:19;;;;;;;3.42;3.13;;;13.10;28.70;;;;;;5147250;27;20968;-61
2022/03/22 13:25:10;;;;;;;4.57;4.18;;;13.20;28.00;;;;;;5147820;27;20534;-61
2022/03/22 13:27:57;;;;;;;3.95;3.30;;;13.20;28.70;;;;;;5085947;27;20834;-61
2022/03/22 13:30:38;;;;;;;3.92;3.63;;;13.20;28.20;;;;;;5147552;27;20949;-61
2022/03/22 13:33:20;;;;;;;5.18;4.15;;;13.10;27.50;;;;;;5106224;27;20665;-61
2022/03/22 13:36:02;;;;;;;5.25;3.25;;;13.00;28.50;;;;;;5106213;27;21050;-60
2022/03/22 13:38:50;;;;;;;3.72;3.42;;;13.00;27.90;;;;;;5106456;27;20542;-61
2022/03/22 13:41:30;;;;;;;3.92;3.60;;;13.00;27.80;;;;;;5085079;28;20672;-61
2022/03/22 13:44:10;;;;;;;5.05;4.53;;;13.00;27.90;;;;;;5106066;27;21078;-61
2022/03/22 13:46:52;;;;;;;4.25;3.45;;;13.10;26.70;;;;;;5105682;27;20553;-61
2022/03/22 13:49:38;;;;;;;4.05;3.75;;;13.20;25.90;;;;;;5085166;27;20579;-61
2022/03/22 13:52:25;;;;;;;3.80;3.50;;;13.20;27.00;;;;;;5086101;27;20547;-60
2022/03/22 13:55:13;;;;;;;3.83;3.53;;;13.20;27.40;;;;;;5147305;27;20662;-61
2022/03/22 13:57:53;;;;;;;3.63;3.33;;;13.20;27.90;;;;;;5085919;28;20667;-61
2022/03/22 14:00:34;;;;;;;3.30;3.10;;;13.20;27.20;;;;;;5085587;27;20583;-61
2022/03/22 14:03:14;;;;;;;3.80;3.50;;;13.20;26.50;;;;;;5085804;28;20676;-61
2022/03/22 14:05:54;;;;;;;4.13;3.72;;;13.20;27.30;;;;;;5126596;27;20544;-61
2022/03/22 14:08:36;;;;;;;3.97;3.67;;;13.20;27.40;;;;;;5105904;27;20952;-60
2022/03/22 14:11:16;;;;;;;4.13;3.67;;;13.20;26.90;;;;;;5146610;27;20546;-61
2022/03/22 14:13:56;;;;;;;4.38;3.97;;;13.30;27.10;;;;;;5067565;28;20674;-61
2022/03/22 14:16:35;;;;;;;4.07;3.60;;;13.30;27.50;;;;;;5085608;28;20664;-61
2022/03/22 14:19:15;;;;;;;5.43;3.88;;;13.30;27.10;;;;;;5105942;27;20564;-61
2022/03/22 14:21:56;;;;;;;3.97;3.65;;;13.40;26.10;;;;;;5086346;27;20977;-61
2022/03/22 14:24:35;;;;;;;3.90;3.60;;;13.40;25.90;;;;;;5085941;27;20585;-61
2022/03/22 14:27:15;;;;;;;4.10;3.80;;;13.40;25.70;;;;;;5086290;28;20557;-61
2022/03/22 14:29:54;;;;;;;5.10;3.58;;;13.30;26.30;;;;;;5086326;27;20551;-61
2022/03/22 14:32:35;;;;;;;3.92;3.63;;;13.30;26.90;;;;;;5086878;28;21022;-60
2022/03/22 14:38:13;;;;;;;3.38;3.17;;;13.20;26.60;;;;;;5093250;22;20726;-60
2022/03/22 14:41:22;;;;;;;3.70;3.40;;;13.30;26.50;;;;;;5145368;27;20972;-60
2022/03/22 14:44:02;;;;;;;3.90;3.60;;;13.20;25.50;;;;;;5144690;27;20661;-60
2022/03/22 14:46:43;;;;;;;3.83;3.50;;;13.20;26.60;;;;;;5084089;27;20543;-60
2022/03/22 14:49:24;;;;;;;4.05;3.33;;;13.20;25.60;;;;;;5102856;27;20666;-60